Time;durP1;ratioP1;P1;durP2;ratioP2;P2;SDS_P1;SDS_P2;PMS_P1;PMS_P2;Temp;Humidity;BMP_temperature;BMP_pressure;BME280_temperature;BME280_humidity;BME280_pressure;Samples;Min_cycle;Max_cycle;Signal;HPM_P1;HPM_P2
2023/05/04 00:01:40;;;;;;;;;;;;;;;17.17;57.13;102168.00;5120567;28;19979;-51
2023/05/04 00:04:06;;;;;;;;;;;;;;;17.42;56.67;102161.16;5123161;28;19915;-51
2023/05/04 00:06:31;;;;;;;;;;;;;;;17.22;57.28;102162.00;5125223;28;20008;-52
2023/05/04 00:08:57;;;;;;;;;;;;;;;17.19;57.74;102152.44;5123193;28;19919;-52
2023/05/04 00:11:22;;;;;;;;;;;;;;;17.09;58.23;102148.50;5122670;28;19928;-53
2023/05/04 00:13:48;;;;;;;;;;;;;;;16.97;58.88;102140.94;5122836;28;19970;-56
2023/05/04 00:16:13;;;;;;;;;;;;;;;16.82;59.43;102135.75;5123891;28;19931;-54
2023/05/04 00:18:39;;;;;;;;;;;;;;;16.90;59.33;102134.72;5122406;28;19984;-54
2023/05/04 00:21:05;;;;;;;;;;;;;;;16.99;59.01;102136.19;5121594;28;19920;-54
2023/05/04 00:23:30;;;;;;;;;;;;;;;16.91;59.55;102128.28;5121689;28;19926;-52
2023/05/04 00:25:57;;;;;;;;;;;;;;;16.94;59.74;102133.25;5122037;28;19916;-54
2023/05/04 00:28:22;;;;;;;;;;;;;;;16.76;60.35;102131.16;5121331;28;19915;-53
2023/05/04 00:30:48;;;;;;;;;;;;;;;16.75;60.62;102130.31;5122474;28;19915;-54
2023/05/04 00:33:13;;;;;;;;;;;;;;;16.84;60.73;102124.72;5123333;28;19920;-48
2023/05/04 00:35:40;;;;;;;;;;;;;;;16.72;61.10;102128.03;5120043;28;19920;-52
2023/05/04 00:38:05;;;;;;;;;;;;;;;16.83;60.79;102126.59;5117652;28;19915;-51
2023/05/04 00:40:31;;;;;;;;;;;;;;;16.83;61.09;102118.50;5117035;28;19916;-55
2023/05/04 00:42:56;;;;;;;;;;;;;;;16.77;61.44;102117.44;5116112;28;19920;-51
2023/05/04 00:45:22;;;;;;;;;;;;;;;16.68;61.75;102102.47;5115452;28;19951;-52
2023/05/04 00:47:48;;;;;;;;;;;;;;;16.64;61.65;102109.34;5117066;28;19938;-54
2023/05/04 00:50:13;;;;;;;;;;;;;;;16.69;62.22;102098.75;5119965;28;19916;-51
2023/05/04 00:52:40;;;;;;;;;;;;;;;16.62;62.25;102101.44;5115341;28;19921;-50
2023/05/04 00:55:06;;;;;;;;;;;;;;;16.48;62.94;102097.88;5119407;28;19931;-49
2023/05/04 00:57:31;;;;;;;;;;;;;;;16.32;63.52;102090.13;5117192;28;19916;-52
2023/05/04 00:59:57;;;;;;;;;;;;;;;16.30;63.74;102092.22;5117159;28;19912;-53
2023/05/04 01:02:22;;;;;;;;;;;;;;;16.65;62.94;102096.66;5120037;28;19916;-49
2023/05/04 01:04:49;;;;;;;;;;;;;;;16.58;63.14;102099.34;5120302;28;19924;-50
2023/05/04 01:07:21;;;;;;;;;;;;;;;16.56;62.96;102090.59;5116333;28;19916;-52
2023/05/04 01:09:58;;;;;;;;;;;;;;;16.51;63.44;102093.94;5119946;28;19923;-56
2023/05/04 01:12:26;;;;;;;;;;;;;;;16.47;63.25;102088.09;5153781;27;19926;-48
2023/05/04 01:14:53;;;;;;;;;;;;;;;16.44;63.73;102084.97;5123751;28;19920;-54
2023/05/04 01:17:19;;;;;;;;;;;;;;;16.26;64.23;102085.56;5123277;28;19951;-50
2023/05/04 01:19:45;;;;;;;;;;;;;;;16.31;64.29;102083.94;5119169;28;19912;-53
2023/05/04 01:22:10;;;;;;;;;;;;;;;16.42;64.05;102085.19;5121773;28;19916;-51
2023/05/04 01:24:36;;;;;;;;;;;;;;;16.25;64.76;102086.59;5119597;28;19916;-51
2023/05/04 01:27:13;;;;;;;;;;;;;;;16.25;64.49;102083.91;5118865;28;19916;-54
2023/05/04 01:29:44;;;;;;;;;;;;;;;16.20;65.28;102085.34;5123522;28;19920;-53
2023/05/04 01:32:11;;;;;;;;;;;;;;;16.17;65.49;102082.22;5125494;28;19987;-52
2023/05/04 01:34:38;;;;;;;;;;;;;;;16.20;65.44;102085.34;5120887;28;19915;-54
2023/05/04 01:37:05;;;;;;;;;;;;;;;16.24;65.63;102080.34;5121203;28;19915;-54
2023/05/04 01:39:30;;;;;;;;;;;;;;;16.17;65.67;102080.34;5119442;28;19935;-48
2023/05/04 01:41:56;;;;;;;;;;;;;;;16.39;65.03;102079.38;5120860;28;19920;-51
2023/05/04 01:44:21;;;;;;;;;;;;;;;16.27;65.20;102077.28;5122671;28;19915;-53
2023/05/04 01:46:49;;;;;;;;;;;;;;;16.24;65.37;102076.84;5122021;28;19920;-49
2023/05/04 01:49:15;;;;;;;;;;;;;;;16.23;65.64;102086.78;5122141;28;19976;-48
2023/05/04 01:51:41;;;;;;;;;;;;;;;16.18;65.91;102079.31;5120279;28;19915;-51
2023/05/04 01:54:06;;;;;;;;;;;;;;;16.18;65.96;102082.00;5094564;28;19920;-50
2023/05/04 01:56:31;;;;;;;;;;;;;;;16.22;66.03;102084.31;5109686;28;19920;-48
2023/05/04 01:58:57;;;;;;;;;;;;;;;16.14;66.48;102086.13;5090251;28;19954;-54
2023/05/04 02:01:23;;;;;;;;;;;;;;;16.17;66.35;102077.66;5089713;28;19931;-51
2023/05/04 02:03:48;;;;;;;;;;;;;;;16.25;66.12;102082.00;5084011;28;19922;-53
2023/05/04 02:06:14;;;;;;;;;;;;;;;15.96;67.37;102072.38;5092323;28;19927;-53
2023/05/04 02:08:40;;;;;;;;;;;;;;;16.09;67.15;102069.72;5090617;28;19926;-51
2023/05/04 02:11:06;;;;;;;;;;;;;;;16.07;67.41;102079.06;5110651;28;19916;-53
2023/05/04 02:13:31;;;;;;;;;;;;;;;16.05;67.44;102074.72;5108226;28;19971;-48
2023/05/04 02:15:57;;;;;;;;;;;;;;;15.82;68.00;102064.19;5092699;28;19959;-53
2023/05/04 02:18:22;;;;;;;;;;;;;;;16.00;67.74;102065.53;5106436;28;19916;-52
2023/05/04 02:20:48;;;;;;;;;;;;;;;15.71;68.61;102062.09;5111318;28;19987;-53
2023/05/04 02:23:13;;;;;;;;;;;;;;;15.93;68.22;102070.09;5112176;28;19920;-51
2023/05/04 02:25:40;;;;;;;;;;;;;;;15.96;68.20;102064.28;5092707;28;19916;-52
2023/05/04 02:28:07;;;;;;;;;;;;;;;15.91;68.57;102064.88;5090839;28;19923;-54
2023/05/04 02:30:33;;;;;;;;;;;;;;;16.06;67.82;102059.34;5112603;28;19939;-53
2023/05/04 02:32:58;;;;;;;;;;;;;;;16.03;67.86;102054.34;5087347;28;19923;-52
2023/05/04 02:35:24;;;;;;;;;;;;;;;15.96;67.92;102051.63;5107630;28;19924;-54
2023/05/04 02:37:49;;;;;;;;;;;;;;;15.86;68.50;102051.97;5087762;28;19916;-54
2023/05/04 02:40:15;;;;;;;;;;;;;;;15.86;68.53;102051.97;5108864;28;20321;-55
2023/05/04 02:42:40;;;;;;;;;;;;;;;15.87;68.19;102048.22;5089029;28;19916;-53
2023/05/04 02:45:06;;;;;;;;;;;;;;;15.70;69.18;102039.66;5109671;28;19923;-52
2023/05/04 02:47:32;;;;;;;;;;;;;;;15.77;69.01;102040.50;5103079;28;19927;-54
2023/05/04 02:49:59;;;;;;;;;;;;;;;15.77;68.99;102045.09;5073911;28;19983;-53
2023/05/04 02:52:25;;;;;;;;;;;;;;;15.78;68.91;102041.34;5119348;28;19927;-51
2023/05/04 02:54:50;;;;;;;;;;;;;;;15.98;67.95;102046.03;5125298;28;19949;-53
2023/05/04 02:57:16;;;;;;;;;;;;;;;15.75;69.10;102042.56;5124916;28;19919;-52
2023/05/04 02:59:42;;;;;;;;;;;;;;;15.79;69.02;102040.31;5125871;28;20004;-54
2023/05/04 03:02:08;;;;;;;;;;;;;;;15.63;69.73;102041.50;5125613;28;19923;-56
2023/05/04 03:04:33;;;;;;;;;;;;;;;15.56;70.49;102048.69;5123586;28;19941;-55
2023/05/04 03:06:59;;;;;;;;;;;;;;;15.48;70.94;102041.63;5121376;28;19943;-55
2023/05/04 03:09:24;;;;;;;;;;;;;;;15.33;71.77;102039.88;5123660;28;19916;-55
2023/05/04 03:11:49;;;;;;;;;;;;;;;15.46;71.69;102043.69;5122377;28;19988;-55
2023/05/04 03:14:15;;;;;;;;;;;;;;;15.53;71.20;102039.16;5126806;28;19979;-56
2023/05/04 03:16:41;;;;;;;;;;;;;;;15.62;71.13;102031.75;5121920;28;19924;-53
2023/05/04 03:19:06;;;;;;;;;;;;;;;15.39;71.59;102034.72;5124371;28;19980;-54
2023/05/04 03:21:32;;;;;;;;;;;;;;;15.25;72.19;102034.66;5120860;28;19920;-54
2023/05/04 03:23:57;;;;;;;;;;;;;;;15.46;72.28;102032.91;5125252;28;19916;-54
2023/05/04 03:26:24;;;;;;;;;;;;;;;15.49;71.83;102027.13;5121323;28;19916;-51
2023/05/04 03:28:49;;;;;;;;;;;;;;;15.29;72.64;102035.91;5123305;28;20041;-56
2023/05/04 03:31:15;;;;;;;;;;;;;;;15.10;73.49;102026.66;5122037;28;20007;-55
2023/05/04 03:33:40;;;;;;;;;;;;;;;15.23;73.61;102023.25;5122025;28;19931;-52
2023/05/04 03:36:08;;;;;;;;;;;;;;;15.34;73.24;102025.38;5127233;28;19920;-51
2023/05/04 03:38:35;;;;;;;;;;;;;;;15.04;74.39;102017.53;5122984;28;19927;-52
2023/05/04 03:41:01;;;;;;;;;;;;;;;15.11;74.09;102019.41;5121308;28;19912;-51
2023/05/04 03:43:27;;;;;;;;;;;;;;;15.15;74.70;102020.69;5123657;28;19927;-51
2023/05/04 03:45:54;;;;;;;;;;;;;;;15.20;74.51;102018.22;5123692;28;19924;-52
2023/05/04 03:48:19;;;;;;;;;;;;;;;15.25;74.71;102014.94;5121283;28;19960;-54
2023/05/04 03:50:46;;;;;;;;;;;;;;;15.44;73.73;102008.84;5121258;28;19912;-54
2023/05/04 03:53:13;;;;;;;;;;;;;;;15.33;73.78;102012.09;5121884;28;20824;-55
2023/05/04 03:55:40;;;;;;;;;;;;;;;15.27;74.35;102012.88;5123416;28;19962;-53
2023/05/04 03:58:05;;;;;;;;;;;;;;;15.19;74.61;102009.31;5117272;28;19916;-52
2023/05/04 04:00:31;;;;;;;;;;;;;;;15.16;75.21;102006.19;5124309;28;19916;-53
2023/05/04 04:03:06;;;;;;;;;;;;;;;15.29;74.45;102002.72;5123973;28;19947;-51
2023/05/04 04:05:32;;;;;;;;;;;;;;;15.19;75.19;102003.09;5125167;28;19927;-54
2023/05/04 04:07:57;;;;;;;;;;;;;;;15.15;75.02;101997.28;5121298;28;19991;-54
2023/05/04 04:10:23;;;;;;;;;;;;;;;15.16;75.37;102004.34;5123804;28;19920;-51
2023/05/04 04:12:48;;;;;;;;;;;;;;;15.31;74.93;101998.81;5125813;28;19916;-49
2023/05/04 04:15:14;;;;;;;;;;;;;;;15.30;74.40;101996.31;5124800;28;19919;-48
2023/05/04 04:17:40;;;;;;;;;;;;;;;15.26;75.13;101989.66;5125698;28;19916;-51
2023/05/04 04:20:05;;;;;;;;;;;;;;;15.29;74.68;101984.72;5123595;28;19916;-55
2023/05/04 04:22:31;;;;;;;;;;;;;;;15.72;73.92;101993.63;5124234;28;19915;-52
2023/05/04 04:24:57;;;;;;;;;;;;;;;15.17;74.86;101991.69;5124661;28;19984;-51
2023/05/04 04:27:22;;;;;;;;;;;;;;;15.23;74.77;102004.38;5124189;28;19938;-52
2023/05/04 04:29:48;;;;;;;;;;;;;;;15.27;74.43;101985.94;5118803;28;19915;-47
2023/05/04 04:32:14;;;;;;;;;;;;;;;15.35;74.03;101993.88;5118293;28;19927;-48
2023/05/04 04:34:39;;;;;;;;;;;;;;;15.29;73.89;101984.72;5117983;28;19916;-52
2023/05/04 04:37:05;;;;;;;;;;;;;;;15.36;73.90;101992.00;5118539;28;19943;-52
2023/05/04 04:39:31;;;;;;;;;;;;;;;15.31;73.95;101993.44;5117877;28;19924;-52
2023/05/04 04:41:57;;;;;;;;;;;;;;;15.54;72.97;101997.69;5120360;28;19947;-53
2023/05/04 04:44:22;;;;;;;;;;;;;;;15.64;73.00;101997.31;5118728;28;19916;-49
2023/05/04 04:46:48;;;;;;;;;;;;;;;15.62;72.91;102011.00;5118304;28;19935;-49
2023/05/04 04:49:13;;;;;;;;;;;;;;;15.63;72.67;102001.88;5121713;28;19920;-52
2023/05/04 04:51:40;;;;;;;;;;;;;;;15.75;72.10;101995.91;5117739;28;19930;-54
2023/05/04 04:54:06;;;;;;;;;;;;;;;15.70;72.32;101993.81;5099510;28;19912;-54
2023/05/04 04:56:31;;;;;;;;;;;;;;;15.53;72.97;102003.28;5106315;28;19973;-51
2023/05/04 04:58:57;;;;;;;;;;;;;;;15.59;73.25;102000.63;5105275;28;19973;-51
2023/05/04 05:01:23;;;;;;;;;;;;;;;15.68;72.74;101998.59;5109955;28;19947;-50
2023/05/04 05:03:49;;;;;;;;;;;;;;;15.49;73.19;102000.16;5105829;28;19916;-51
2023/05/04 05:06:15;;;;;;;;;;;;;;;15.52;73.06;101991.66;5109513;28;19983;-49
2023/05/04 05:08:41;;;;;;;;;;;;;;;15.71;72.63;101994.66;5108009;28;19923;-51
2023/05/04 05:11:07;;;;;;;;;;;;;;;15.78;72.18;101992.81;5106693;28;19983;-50
2023/05/04 05:13:33;;;;;;;;;;;;;;;15.79;72.17;101991.78;5104496;28;19912;-49
2023/05/04 05:15:58;;;;;;;;;;;;;;;15.91;71.57;101986.66;5105928;28;19920;-53
2023/05/04 05:18:23;;;;;;;;;;;;;;;15.85;71.62;101988.25;5093322;28;19916;-55
2023/05/04 05:20:49;;;;;;;;;;;;;;;16.05;71.07;101987.53;5099906;28;19921;-55
2023/05/04 05:23:15;;;;;;;;;;;;;;;16.39;69.80;101987.56;5105561;28;19923;-54
2023/05/04 05:25:40;;;;;;;;;;;;;;;16.08;71.10;101984.41;5105590;28;19939;-53
2023/05/04 05:28:06;;;;;;;;;;;;;;;15.96;71.42;101977.97;5107336;28;19916;-52
2023/05/04 05:30:31;;;;;;;;;;;;;;;16.20;70.08;101985.47;5098760;28;19916;-52
2023/05/04 05:32:57;;;;;;;;;;;;;;;16.14;70.87;101990.88;5104743;28;19938;-53
2023/05/04 05:35:22;;;;;;;;;;;;;;;16.22;70.71;101979.88;5100168;28;19931;-55
2023/05/04 05:37:47;;;;;;;;;;;;;;;16.07;70.55;101977.34;5104065;28;19920;-54
2023/05/04 05:40:13;;;;;;;;;;;;;;;16.27;70.17;101984.66;5102750;28;19938;-53
2023/05/04 05:42:38;;;;;;;;;;;;;;;16.39;70.08;101980.31;5103984;28;19952;-54
2023/05/04 05:45:04;;;;;;;;;;;;;;;16.65;69.28;101985.91;5101779;28;19928;-53
2023/05/04 05:47:30;;;;;;;;;;;;;;;16.78;69.27;101992.16;5108511;28;19920;-52
2023/05/04 05:49:55;;;;;;;;;;;;;;;16.81;69.46;101990.06;5103320;28;19946;-51
2023/05/04 05:52:21;;;;;;;;;;;;;;;16.99;68.49;101984.88;5103709;28;19927;-51
2023/05/04 05:54:46;;;;;;;;;;;;;;;16.92;68.86;101986.75;5100782;28;19923;-54
2023/05/04 05:57:12;;;;;;;;;;;;;;;16.85;68.85;101981.34;5109678;28;19916;-55
2023/05/04 05:59:37;;;;;;;;;;;;;;;16.86;69.39;101982.19;5105413;28;20001;-54
2023/05/04 06:02:03;;;;;;;;;;;;;;;16.91;69.49;101980.50;5107931;28;19916;-53
2023/05/04 06:04:28;;;;;;;;;;;;;;;17.09;69.13;101983.63;5104329;28;19927;-53
2023/05/04 06:06:54;;;;;;;;;;;;;;;17.15;69.06;101977.38;5107144;28;19939;-50
2023/05/04 06:09:19;;;;;;;;;;;;;;;17.50;67.84;101977.03;5109864;28;19931;-53
2023/05/04 06:11:45;;;;;;;;;;;;;;;17.48;67.44;101979.13;5104950;28;19948;-54
2023/05/04 06:14:10;;;;;;;;;;;;;;;17.67;67.33;101972.00;5105766;28;19942;-56
2023/05/04 06:16:37;;;;;;;;;;;;;;;17.49;67.53;101970.81;5104845;28;19974;-56
2023/05/04 06:19:02;;;;;;;;;;;;;;;17.50;68.28;101963.50;5108228;28;19917;-52
2023/05/04 06:21:27;;;;;;;;;;;;;;;17.60;67.71;101961.19;5104802;28;19924;-54
2023/05/04 06:23:53;;;;;;;;;;;;;;;17.69;67.17;101969.91;5105448;28;19923;-49
2023/05/04 06:26:19;;;;;;;;;;;;;;;17.70;66.70;101966.16;5108695;28;19913;-52
2023/05/04 06:28:44;;;;;;;;;;;;;;;17.85;66.00;101965.84;5103060;28;19938;-54
2023/05/04 06:31:09;;;;;;;;;;;;;;;17.92;66.77;101963.13;5089068;28;19916;-53
2023/05/04 06:33:34;;;;;;;;;;;;;;;18.24;66.00;101963.13;5105089;28;19917;-52
2023/05/04 06:36:00;;;;;;;;;;;;;;;18.37;65.04;101953.28;5103683;28;20003;-50
2023/05/04 06:38:26;;;;;;;;;;;;;;;18.09;64.74;101958.03;5106366;28;19916;-52
2023/05/04 06:40:52;;;;;;;;;;;;;;;18.15;65.25;101953.63;5108115;28;20071;-52
2023/05/04 06:43:18;;;;;;;;;;;;;;;18.07;65.17;101960.13;5104634;28;19920;-56
2023/05/04 06:45:43;;;;;;;;;;;;;;;18.20;64.72;101957.31;5105593;28;20496;-53
2023/05/04 06:48:08;;;;;;;;;;;;;;;18.23;63.99;101953.34;5103709;28;19943;-52
2023/05/04 06:50:35;;;;;;;;;;;;;;;18.54;64.04;101948.94;5109790;28;19916;-53
2023/05/04 06:53:05;;;;;;;;;;;;;;;18.45;63.04;101953.81;5106171;28;19927;-50
2023/05/04 06:55:31;;;;;;;;;;;;;;;18.48;63.51;101952.53;5109231;28;19932;-53
2023/05/04 06:57:56;;;;;;;;;;;;;;;18.61;62.92;101951.59;5103526;28;19916;-51
2023/05/04 07:00:22;;;;;;;;;;;;;;;18.98;61.90;101959.81;5106270;28;19916;-49
2023/05/04 07:02:47;;;;;;;;;;;;;;;18.68;63.33;101946.13;5102385;28;20000;-55
2023/05/04 07:05:12;;;;;;;;;;;;;;;18.95;62.71;101948.56;5104195;28;19962;-53
2023/05/04 07:07:38;;;;;;;;;;;;;;;19.07;62.76;101944.09;5105809;28;20334;-50
2023/05/04 07:10:04;;;;;;;;;;;;;;;19.21;61.25;101947.47;5103955;28;19917;-50
2023/05/04 07:12:30;;;;;;;;;;;;;;;19.30;61.05;101935.25;5105839;28;19916;-49
2023/05/04 07:14:55;;;;;;;;;;;;;;;19.03;61.02;101940.97;5107463;28;19931;-51
2023/05/04 07:17:20;;;;;;;;;;;;;;;19.28;60.45;101933.84;5108327;28;19916;-51
2023/05/04 07:19:48;;;;;;;;;;;;;;;19.34;60.67;101936.44;5105011;28;19931;-53
2023/05/04 07:22:14;;;;;;;;;;;;;;;19.39;60.97;101932.25;5110849;28;20030;-49
2023/05/04 07:24:40;;;;;;;;;;;;;;;19.37;60.89;101929.75;5105127;28;19925;-49
2023/05/04 07:27:05;;;;;;;;;;;;;;;19.66;60.44;101924.56;5107929;28;19927;-55
2023/05/04 07:29:31;;;;;;;;;;;;;;;19.80;60.09;101917.06;5105019;28;19925;-51
2023/05/04 07:31:56;;;;;;;;;;;;;;;19.70;60.20;101924.94;5105151;28;19916;-55
2023/05/04 07:34:22;;;;;;;;;;;;;;;19.95;59.15;101921.25;5105563;28;19997;-47
2023/05/04 07:36:47;;;;;;;;;;;;;;;19.76;59.75;101919.41;5110164;28;19920;-48
2023/05/04 07:39:15;;;;;;;;;;;;;;;20.13;59.72;101921.19;5103663;28;19936;-51
2023/05/04 07:41:40;;;;;;;;;;;;;;;20.15;59.10;101924.50;5106595;28;19916;-51
2023/05/04 07:44:07;;;;;;;;;;;;;;;20.01;59.21;101917.59;5103200;28;19947;-51
2023/05/04 07:46:33;;;;;;;;;;;;;;;20.35;59.20;101923.34;5103592;28;19916;-52
2023/05/04 07:48:58;;;;;;;;;;;;;;;20.46;57.85;101918.97;5103571;28;19939;-53
2023/05/04 07:51:23;;;;;;;;;;;;;;;20.42;58.03;101915.09;5106314;28;19916;-55
2023/05/04 07:53:49;;;;;;;;;;;;;;;20.70;58.06;101922.50;5104673;28;19925;-51
2023/05/04 07:56:14;;;;;;;;;;;;;;;20.85;57.20;101926.66;5106114;28;19943;-52
2023/05/04 07:58:40;;;;;;;;;;;;;;;20.62;57.30;101918.25;5110542;28;19939;-54
2023/05/04 08:01:06;;;;;;;;;;;;;;;20.95;56.87;101926.06;5110098;28;19981;-54
2023/05/04 08:03:31;;;;;;;;;;;;;;;20.97;56.82;101911.16;5105960;28;20982;-54
2023/05/04 08:05:57;;;;;;;;;;;;;;;21.15;56.49;101915.63;5106021;28;19976;-49
2023/05/04 08:08:23;;;;;;;;;;;;;;;21.44;55.68;101910.19;5099217;28;19917;-55
2023/05/04 08:10:48;;;;;;;;;;;;;;;21.60;55.41;101905.03;5107214;28;19927;-51
2023/05/04 08:13:13;;;;;;;;;;;;;;;21.58;54.91;101902.56;5103875;28;19938;-51
2023/05/04 08:15:40;;;;;;;;;;;;;;;21.61;55.03;101910.22;5105894;28;19920;-57
2023/05/04 08:18:05;;;;;;;;;;;;;;;21.51;55.04;101901.88;5104782;28;19917;-56
2023/05/04 08:20:31;;;;;;;;;;;;;;;21.75;54.60;101907.25;5105666;28;19938;-54
2023/05/04 08:22:57;;;;;;;;;;;;;;;21.97;53.93;101898.38;5107338;28;19931;-54
2023/05/04 08:25:22;;;;;;;;;;;;;;;22.13;54.02;101891.25;5112005;28;19916;-50
2023/05/04 08:27:48;;;;;;;;;;;;;;;21.90;54.02;101888.44;5108876;28;20011;-53
2023/05/04 08:30:13;;;;;;;;;;;;;;;21.99;54.32;101882.59;5110720;28;20476;-52
2023/05/04 08:32:39;;;;;;;;;;;;;;;22.28;54.06;101880.63;5111366;28;19916;-53
2023/05/04 08:35:05;;;;;;;;;;;;;;;22.13;53.90;101878.44;5085899;28;19975;-52
2023/05/04 08:37:31;;;;;;;;;;;;;;;22.16;53.81;101871.69;5108300;28;19916;-54
2023/05/04 08:39:57;;;;;;;;;;;;;;;22.31;53.95;101876.53;5107919;28;19908;-53
2023/05/04 08:42:26;;;;;;;;;;;;;;;22.29;53.94;101873.25;5105660;28;19923;-52
2023/05/04 08:44:52;;;;;;;;;;;;;;;22.66;53.02;101882.78;5090873;28;19952;-55
2023/05/04 08:47:17;;;;;;;;;;;;;;;22.96;52.66;101879.63;5110001;28;19920;-51
2023/05/04 08:49:43;;;;;;;;;;;;;;;22.82;52.40;101875.63;5109224;28;19908;-49
2023/05/04 08:52:08;;;;;;;;;;;;;;;22.83;52.71;101877.28;5104776;28;19952;-52
2023/05/04 08:54:34;;;;;;;;;;;;;;;23.19;52.15;101869.53;5109249;28;19938;-49
2023/05/04 08:57:02;;;;;;;;;;;;;;;22.95;52.39;101874.41;5105876;28;19920;-53
2023/05/04 08:59:28;;;;;;;;;;;;;;;23.28;51.26;101868.00;5101062;28;19939;-50
2023/05/04 09:01:56;;;;;;;;;;;;;;;23.55;51.65;101863.66;5104327;28;19916;-54
2023/05/04 09:04:21;;;;;;;;;;;;;;;23.56;51.72;101865.28;5105357;28;19942;-54
2023/05/04 09:06:47;;;;;;;;;;;;;;;23.78;50.94;101854.31;5107218;28;20099;-49
2023/05/04 09:09:13;;;;;;;;;;;;;;;23.74;50.94;101842.22;5108442;28;19924;-53
2023/05/04 09:11:39;;;;;;;;;;;;;;;23.75;50.38;101839.25;5108757;28;19968;-52
2023/05/04 09:14:04;;;;;;;;;;;;;;;23.91;50.63;101847.56;5088552;28;19924;-54
2023/05/04 09:16:35;;;;;;;;;;;;;;;23.84;50.95;101838.75;5084616;28;19963;-52
2023/05/04 09:19:01;;;;;;;;;;;;;;;24.05;51.02;101847.97;5088819;28;19938;-50
2023/05/04 09:21:30;;;;;;;;;;;;;;;24.60;49.48;101842.28;5100968;28;19988;-52
2023/05/04 09:23:55;;;;;;;;;;;;;;;24.81;49.56;101840.50;5102082;28;19923;-53
2023/05/04 09:26:30;;;;;;;;;;;;;;;25.43;49.04;101835.16;5091672;28;19992;-52
2023/05/04 09:28:56;;;;;;;;;;;;;;;25.71;48.22;101838.47;5105350;28;19984;-56
2023/05/04 09:31:22;;;;;;;;;;;;;;;26.05;46.85;101843.38;5114450;28;19917;-54
2023/05/04 09:33:48;;;;;;;;;;;;;;;26.17;46.02;101845.84;5115728;28;19926;-52
2023/05/04 09:36:19;;;;;;;;;;;;;;;26.76;45.64;101851.72;5111814;28;19920;-54
2023/05/04 09:38:45;;;;;;;;;;;;;;;26.88;45.50;101843.19;5113125;28;19916;-54
2023/05/04 09:41:10;;;;;;;;;;;;;;;27.24;44.88;101844.91;5107635;28;19920;-54
2023/05/04 09:43:37;;;;;;;;;;;;;;;27.87;43.73;101840.56;5112603;28;19955;-50
2023/05/04 09:46:03;;;;;;;;;;;;;;;28.75;43.03;101838.81;5111089;28;19927;-52
2023/05/04 09:48:28;;;;;;;;;;;;;;;28.97;42.09;101832.75;5096885;28;19916;-53
2023/05/04 09:50:55;;;;;;;;;;;;;;;29.43;41.28;101827.69;5111102;28;19916;-52
2023/05/04 09:53:24;;;;;;;;;;;;;;;29.74;40.32;101836.25;5121774;28;19966;-53
2023/05/04 09:55:55;;;;;;;;;;;;;;;30.17;38.71;101834.41;5126843;28;19950;-52
2023/05/04 09:58:21;;;;;;;;;;;;;;;30.88;37.79;101833.22;5121363;28;19923;-53
2023/05/04 10:00:47;;;;;;;;;;;;;;;30.83;38.22;101833.34;5119972;28;19920;-51
2023/05/04 10:03:14;;;;;;;;;;;;;;;31.21;37.36;101833.06;5123709;28;19924;-51
2023/05/04 10:05:39;;;;;;;;;;;;;;;31.65;36.76;101827.00;5121223;28;19916;-54
2023/05/04 10:08:05;;;;;;;;;;;;;;;32.09;36.70;101819.78;5123368;28;19923;-50
2023/05/04 10:10:31;;;;;;;;;;;;;;;32.17;35.93;101818.16;5122668;28;19916;-52
2023/05/04 10:12:56;;;;;;;;;;;;;;;32.68;34.97;101820.59;5122480;28;19951;-50
2023/05/04 10:15:23;;;;;;;;;;;;;;;32.47;34.82;101815.69;5121022;28;19935;-50
2023/05/04 10:18:06;;;;;;;;;;;;;;;32.81;34.96;101807.75;5122745;28;19978;-49
2023/05/04 10:20:40;;;;;;;;;;;;;;;32.81;34.35;101813.28;5120631;28;19923;-53
2023/05/04 10:23:18;;;;;;;;;;;;;;;33.34;34.06;101803.03;5120024;28;19916;-54
2023/05/04 10:25:59;;;;;;;;;;;;;;;33.52;34.07;101803.81;5118111;28;19916;-54
2023/05/04 10:28:30;;;;;;;;;;;;;;;33.84;33.43;101796.03;5121261;28;19927;-55
2023/05/04 10:30:57;;;;;;;;;;;;;;;33.89;33.49;101806.94;5123579;28;19916;-54
2023/05/04 10:33:23;;;;;;;;;;;;;;;34.58;32.86;101792.25;5121310;28;19916;-54
2023/05/04 10:35:52;;;;;;;;;;;;;;;34.66;31.85;101794.16;5125193;28;19939;-53
2023/05/04 10:38:18;;;;;;;;;;;;;;;35.08;31.66;101787.75;5123634;28;19942;-55
2023/05/04 10:40:47;;;;;;;;;;;;;;;35.15;31.05;101784.44;5123072;28;19916;-52
2023/05/04 10:43:20;;;;;;;;;;;;;;;35.21;30.82;101776.69;5121696;28;19943;-53
2023/05/04 10:45:46;;;;;;;;;;;;;;;35.08;30.63;101776.66;5119666;28;19920;-53
2023/05/04 10:48:12;;;;;;;;;;;;;;;35.33;30.79;101770.38;5120430;28;19934;-52
2023/05/04 10:50:44;;;;;;;;;;;;;;;35.71;30.68;101777.63;5121373;28;19992;-58
2023/05/04 10:53:11;;;;;;;;;;;;;;;35.72;30.36;101762.56;5123183;28;19947;-55
2023/05/04 10:55:40;;;;;;;;;;;;;;;35.86;30.53;101749.13;5122965;28;19924;-57
2023/05/04 10:58:06;;;;;;;;;;;;;;;36.24;29.69;101751.91;5120260;28;19987;-51
2023/05/04 11:00:39;;;;;;;;;;;;;;;36.54;29.29;101754.41;5122061;28;19915;-53
2023/05/04 11:03:06;;;;;;;;;;;;;;;37.02;29.25;101735.88;5123609;28;19927;-55
2023/05/04 11:05:41;;;;;;;;;;;;;;;37.23;28.85;101734.81;5123545;28;19951;-55
2023/05/04 11:08:17;;;;;;;;;;;;;;;37.41;28.61;101731.69;5118453;28;19915;-57
2023/05/04 11:10:42;;;;;;;;;;;;;;;37.06;28.63;101724.00;5120903;28;19942;-54
2023/05/04 11:13:11;;;;;;;;;;;;;;;37.90;28.29;101718.50;5125432;28;19951;-57
2023/05/04 11:15:43;;;;;;;;;;;;;;;37.70;28.48;101710.88;5120941;28;19926;-54
2023/05/04 11:18:08;;;;;;;;;;;;;;;38.64;26.92;101702.94;5121653;28;19945;-56
2023/05/04 11:20:34;;;;;;;;;;;;;;;39.18;26.84;101706.75;5125105;28;19944;-53
2023/05/04 11:22:59;;;;;;;;;;;;;;;39.19;26.69;101708.38;5120539;28;19931;-57
2023/05/04 11:25:28;;;;;;;;;;;;;;;39.37;26.62;101705.09;5123224;28;19923;-57
2023/05/04 11:27:53;;;;;;;;;;;;;;;39.70;26.09;101703.63;5122060;28;19916;-56
2023/05/04 11:30:18;;;;;;;;;;;;;;;39.68;26.39;101700.41;5119759;28;19930;-55
2023/05/04 11:32:49;;;;;;;;;;;;;;;39.64;26.25;101691.13;5122736;28;20062;-55
2023/05/04 11:35:18;;;;;;;;;;;;;;;40.04;25.40;101695.31;5122291;28;19950;-56
2023/05/04 11:37:45;;;;;;;;;;;;;;;40.40;25.57;101672.56;5122208;28;19927;-57
2023/05/04 11:40:10;;;;;;;;;;;;;;;40.67;25.26;101678.88;5121195;28;19980;-56
2023/05/04 11:42:39;;;;;;;;;;;;;;;40.71;25.05;101676.94;5121814;28;19947;-56
2023/05/04 11:45:08;;;;;;;;;;;;;;;40.86;24.71;101669.47;5119307;27;19916;-57
2023/05/04 11:47:34;;;;;;;;;;;;;;;41.34;24.14;101667.06;5116310;28;19916;-56
2023/05/04 11:49:59;;;;;;;;;;;;;;;41.10;24.98;101670.06;5117724;28;19938;-57
2023/05/04 11:52:25;;;;;;;;;;;;;;;41.16;24.54;101672.53;5123099;28;19920;-55
2023/05/04 11:54:55;;;;;;;;;;;;;;;41.12;25.15;101670.47;5122090;28;20495;-54
2023/05/04 11:57:21;;;;;;;;;;;;;;;41.18;24.71;101670.13;5118211;28;19955;-54
2023/05/04 11:59:47;;;;;;;;;;;;;;;41.38;24.51;101670.72;5119304;27;19916;-53
2023/05/04 12:02:14;;;;;;;;;;;;;;;40.49;22.89;101667.47;5118103;28;19916;-54
2023/05/04 12:04:39;;;;;;;;;;;;;;;41.00;23.61;101663.16;5123147;28;19931;-53
2023/05/04 12:07:06;;;;;;;;;;;;;;;41.48;24.60;101655.94;5118542;28;19916;-56
2023/05/04 12:09:42;;;;;;;;;;;;;;;41.24;24.24;101651.78;5119844;28;19916;-58
2023/05/04 12:12:07;;;;;;;;;;;;;;;41.02;23.88;101648.78;5121630;28;19923;-56
2023/05/04 12:14:33;;;;;;;;;;;;;;;41.10;22.57;101639.22;5117892;28;19916;-57
2023/05/04 12:17:01;;;;;;;;;;;;;;;41.77;21.85;101642.09;5118979;28;19956;-56
2023/05/04 12:19:27;;;;;;;;;;;;;;;42.52;21.14;101645.59;5119211;28;19923;-58
2023/05/04 12:21:53;;;;;;;;;;;;;;;42.32;21.26;101648.75;5119354;28;19916;-57
2023/05/04 12:24:22;;;;;;;;;;;;;;;42.03;20.55;101643.03;5117946;28;19988;-56
2023/05/04 12:26:48;;;;;;;;;;;;;;;41.51;21.75;101635.50;5118635;28;19927;-56
2023/05/04 12:29:13;;;;;;;;;;;;;;;41.75;21.48;101643.69;5119459;28;19916;-56
2023/05/04 12:31:39;;;;;;;;;;;;;;;41.87;20.71;101634.13;5118733;28;19977;-56